createdAt,value
2022-10-08T00:02:18.782Z,3.80
2022-10-08T00:05:23.253Z,3.95
2022-10-08T00:08:30.138Z,4.75
2022-10-08T00:11:41.550Z,5.22
2022-10-08T00:14:45.818Z,4.57
2022-10-08T00:17:50.039Z,4.90
2022-10-08T00:21:04.901Z,4.35
2022-10-08T00:24:11.880Z,4.50
2022-10-08T00:27:17.072Z,5.15
2022-10-08T00:30:21.400Z,4.50
2022-10-08T00:33:25.562Z,4.72
2022-10-08T00:36:35.313Z,4.00
2022-10-08T00:39:39.992Z,4.35
2022-10-08T00:42:46.556Z,3.40
2022-10-08T00:45:51.211Z,4.33
2022-10-08T00:49:25.910Z,3.58
2022-10-08T00:52:35.976Z,5.20
2022-10-08T00:55:43.876Z,3.80
2022-10-08T00:58:50.149Z,4.00
2022-10-08T01:01:54.914Z,4.00
2022-10-08T01:04:59.936Z,4.40
2022-10-08T01:08:22.445Z,3.80
2022-10-08T01:12:02.778Z,42.60
2022-10-08T01:15:23.206Z,4.13
2022-10-08T01:18:53.412Z,3.20
2022-10-08T01:22:19.877Z,3.97
2022-10-08T01:25:35.694Z,4.25
2022-10-08T01:28:46.910Z,4.15
2022-10-08T01:32:04.763Z,4.68
2022-10-08T01:35:15.175Z,3.80
2022-10-08T01:38:23.108Z,4.25
2022-10-08T01:41:30.356Z,3.53
2022-10-08T01:44:48.058Z,4.35
2022-10-08T01:47:53.744Z,4.28
2022-10-08T01:51:16.112Z,3.88
2022-10-08T01:54:23.385Z,4.15
2022-10-08T01:57:30.193Z,3.65
2022-10-08T02:00:36.849Z,4.07
2022-10-08T02:04:01.085Z,4.10
2022-10-08T02:07:29.824Z,3.63
2022-10-08T02:10:34.459Z,4.05
2022-10-08T02:13:39.142Z,3.63
2022-10-08T02:16:52.414Z,4.03
2022-10-08T02:20:23.237Z,4.43
2022-10-08T02:23:53.742Z,3.80
2022-10-08T02:27:02.566Z,3.90
2022-10-08T02:30:11.357Z,4.10
2022-10-08T02:33:22.409Z,3.63
2022-10-08T02:36:38.083Z,3.42
2022-10-08T02:39:47.944Z,3.50
2022-10-08T02:42:58.002Z,3.70
2022-10-08T02:46:18.007Z,16.30
2022-10-08T02:49:28.418Z,8.05
2022-10-08T02:52:40.317Z,9.70
2022-10-08T02:55:55.650Z,9.73
2022-10-08T02:59:00.101Z,5.30
2022-10-08T03:02:06.563Z,7.45
2022-10-08T03:05:18.647Z,4.78
2022-10-08T03:08:23.484Z,3.67
2022-10-08T03:11:28.916Z,5.37
2022-10-08T03:14:36.748Z,3.50
2022-10-08T03:17:45.876Z,3.70
2022-10-08T03:20:52.744Z,3.40
2022-10-08T03:23:57.177Z,3.90
2022-10-08T03:27:01.673Z,4.03
2022-10-08T03:30:06.534Z,3.13
2022-10-08T03:33:11.024Z,3.60
2022-10-08T03:36:15.629Z,3.58
2022-10-08T03:39:20.031Z,3.20
2022-10-08T03:42:24.278Z,3.58
2022-10-08T03:45:28.772Z,3.83
2022-10-08T03:48:33.729Z,4.28
2022-10-08T03:51:38.217Z,3.63
2022-10-08T03:54:42.571Z,3.65
2022-10-08T03:57:46.997Z,3.35
2022-10-08T04:01:24.141Z,3.10
2022-10-08T04:04:28.760Z,3.60
2022-10-08T04:07:33.439Z,3.40
2022-10-08T04:10:39.674Z,3.95
2022-10-08T04:13:45.051Z,3.55
2022-10-08T04:16:49.534Z,3.75
2022-10-08T04:19:54.303Z,3.05
2022-10-08T04:22:58.812Z,3.17
2022-10-08T04:26:03.974Z,3.10
2022-10-08T04:29:09.150Z,3.28
2022-10-08T04:32:13.465Z,3.97
2022-10-08T04:35:17.968Z,3.00
2022-10-08T04:38:23.195Z,2.95
2022-10-08T04:41:28.807Z,4.18
2022-10-08T04:47:37.477Z,3.20
2022-10-08T04:50:42.177Z,3.38
2022-10-08T04:53:47.062Z,3.10
2022-10-08T04:56:51.660Z,3.92
2022-10-08T05:00:16.956Z,3.47
2022-10-08T05:03:20.567Z,3.28
2022-10-08T05:06:28.982Z,3.63
2022-10-08T05:09:33.183Z,3.60
2022-10-08T05:12:37.736Z,3.55
2022-10-08T05:15:42.092Z,3.70
2022-10-08T05:18:46.803Z,3.63
2022-10-08T05:21:51.316Z,3.15
2022-10-08T05:24:55.508Z,3.45
2022-10-08T05:28:00.299Z,5.07
2022-10-08T05:31:04.954Z,3.13
2022-10-08T05:34:09.537Z,5.33
2022-10-08T05:37:13.893Z,3.05
2022-10-08T05:40:18.203Z,3.50
2022-10-08T05:43:22.508Z,3.67
2022-10-08T05:46:29.085Z,3.88
2022-10-08T05:49:33.759Z,3.20
2022-10-08T05:52:38.161Z,3.25
2022-10-08T05:55:42.778Z,3.05
2022-10-08T05:58:47.944Z,3.60
2022-10-08T06:01:53.312Z,4.22
2022-10-08T06:04:57.497Z,3.10
2022-10-08T06:08:01.967Z,3.10
2022-10-08T06:11:07.846Z,2.80
2022-10-08T06:14:14.322Z,2.58
2022-10-08T06:17:18.783Z,3.13
2022-10-08T06:20:23.138Z,3.35
2022-10-08T06:23:27.728Z,3.13
2022-10-08T06:26:40.174Z,3.60
2022-10-08T06:29:44.658Z,3.15
2022-10-08T06:32:49.410Z,3.35
2022-10-08T06:35:54.317Z,27.17
2022-10-08T06:39:04.911Z,5.47
2022-10-08T06:42:09.376Z,3.83
2022-10-08T06:48:20.612Z,6.03
2022-10-08T06:51:25.051Z,4.38
2022-10-08T06:54:29.419Z,2.83
2022-10-08T06:57:34.107Z,2.70
2022-10-08T07:00:39.858Z,5.03
2022-10-08T07:03:44.623Z,5.80
2022-10-08T07:06:49.145Z,3.80
2022-10-08T07:09:53.440Z,2.83
2022-10-08T07:12:57.859Z,5.05
2022-10-08T07:16:07.680Z,3.40
2022-10-08T07:19:12.084Z,2.83
2022-10-08T07:22:16.446Z,2.60
2022-10-08T07:25:20.840Z,3.03
2022-10-08T07:28:26.634Z,3.10
2022-10-08T07:31:36.453Z,2.78
2022-10-08T07:34:40.945Z,4.68
2022-10-08T07:37:45.595Z,3.00
2022-10-08T07:40:51.854Z,3.28
2022-10-08T07:44:00.681Z,4.53
2022-10-08T07:47:05.363Z,6.70
2022-10-08T07:50:10.380Z,4.25
2022-10-08T07:53:14.738Z,6.70
2022-10-08T07:56:22.233Z,6.20
2022-10-08T07:59:26.669Z,7.22
2022-10-08T08:02:31.040Z,28.50
2022-10-08T08:05:36.658Z,12.57
2022-10-08T08:11:47.411Z,5.88
2022-10-08T08:14:52.033Z,6.72
2022-10-08T08:17:56.523Z,13.00
2022-10-08T08:21:06.148Z,24.15
2022-10-08T08:24:16.030Z,25.80
2022-10-08T08:27:20.411Z,30.27
2022-10-08T08:30:24.721Z,26.05
2022-10-08T08:33:29.245Z,21.17
2022-10-08T08:36:37.189Z,23.08
2022-10-08T08:39:42.006Z,23.20
2022-10-08T08:42:56.336Z,17.93
2022-10-08T08:46:02.836Z,17.95
2022-10-08T08:49:16.506Z,16.95
2022-10-08T08:52:26.193Z,21.17
2022-10-08T08:55:50.159Z,19.40
2022-10-08T08:59:29.589Z,22.65
2022-10-08T09:02:40.228Z,25.88
2022-10-08T09:05:48.776Z,38.05
2022-10-08T09:09:03.851Z,136.63
2022-10-08T09:12:20.446Z,77.23
2022-10-08T09:15:34.419Z,84.20
2022-10-08T09:18:39.294Z,69.85
2022-10-08T09:21:43.967Z,72.20
2022-10-08T09:24:53.122Z,72.35
2022-10-08T09:28:01.841Z,71.70
2022-10-08T09:31:20.167Z,47.95
2022-10-08T09:34:24.934Z,43.13
2022-10-08T09:37:29.532Z,48.65
2022-10-08T09:40:34.367Z,49.83
2022-10-08T09:43:38.872Z,59.70
2022-10-08T09:46:43.675Z,63.97
2022-10-08T09:50:02.754Z,64.90
2022-10-08T09:53:07.890Z,59.75
2022-10-08T09:56:14.910Z,46.33
2022-10-08T09:59:22.655Z,60.50
2022-10-08T10:02:31.910Z,52.05
2022-10-08T10:05:38.050Z,61.33
2022-10-08T10:09:00.988Z,56.72
2022-10-08T10:12:21.037Z,56.47
2022-10-08T10:15:35.670Z,56.90
2022-10-08T10:19:02.582Z,53.20
2022-10-08T10:22:23.101Z,59.17
2022-10-08T10:25:39.293Z,55.65
2022-10-08T10:28:54.288Z,60.45
2022-10-08T10:32:20.975Z,51.80
2022-10-08T10:35:31.545Z,52.28
2022-10-08T10:38:43.248Z,70.88
2022-10-08T10:41:56.751Z,64.97
2022-10-08T10:45:35.997Z,76.07
2022-10-08T10:48:40.423Z,55.72
2022-10-08T10:52:34.538Z,52.15
2022-10-08T10:56:02.973Z,47.17
2022-10-08T10:59:21.488Z,48.03
2022-10-08T11:02:44.385Z,45.20
2022-10-08T11:05:56.729Z,38.28
2022-10-08T11:09:31.983Z,35.30
2022-10-08T11:13:26.539Z,29.20
2022-10-08T11:16:31.263Z,26.25
2022-10-08T11:20:00.217Z,24.35
2022-10-08T11:23:22.554Z,25.92
2022-10-08T11:26:45.815Z,25.50
2022-10-08T11:30:07.399Z,26.98
2022-10-08T11:33:15.457Z,24.10
2022-10-08T11:36:23.021Z,24.90
2022-10-08T11:40:00.589Z,24.65
2022-10-08T11:43:20.221Z,23.60
2022-10-08T11:46:32.227Z,25.40
2022-10-08T11:49:39.438Z,20.90
2022-10-08T11:52:44.285Z,20.13
2022-10-08T11:56:00.244Z,22.27
2022-10-08T11:59:28.558Z,20.48
2022-10-08T12:02:39.423Z,21.75
2022-10-08T12:05:51.776Z,25.70
2022-10-08T12:08:58.940Z,28.33
2022-10-08T12:12:14.929Z,37.78
2022-10-08T12:15:25.432Z,27.85
2022-10-08T12:18:32.292Z,26.63
2022-10-08T12:21:47.882Z,34.25
2022-10-08T12:24:58.399Z,25.77
2022-10-08T12:28:22.067Z,26.15
2022-10-08T12:31:33.094Z,33.30
2022-10-08T12:34:37.560Z,27.52
2022-10-08T12:37:45.169Z,36.72
2022-10-08T12:41:27.630Z,48.25
2022-10-08T12:45:09.561Z,35.33
2022-10-08T12:48:42.069Z,47.88
2022-10-08T12:52:12.918Z,43.55
2022-10-08T12:55:24.421Z,39.30
2022-10-08T12:58:32.784Z,34.60
2022-10-08T13:01:37.439Z,24.95
2022-10-08T13:04:47.676Z,27.33
2022-10-08T13:07:52.526Z,26.17
2022-10-08T13:10:58.751Z,28.30
2022-10-08T13:17:07.829Z,29.60
2022-10-08T13:20:12.076Z,31.17
2022-10-08T13:23:38.491Z,31.52
2022-10-08T13:26:44.249Z,34.58
2022-10-08T13:33:04.029Z,36.80
2022-10-08T13:36:08.669Z,38.00
2022-10-08T13:39:25.235Z,40.78
2022-10-08T13:42:34.498Z,41.22
2022-10-08T13:45:38.990Z,39.28
2022-10-08T13:48:46.725Z,40.88
2022-10-08T13:51:51.980Z,37.28
2022-10-08T13:55:01.332Z,36.67
2022-10-08T13:58:08.407Z,34.35
2022-10-08T14:01:13.125Z,20.15
2022-10-08T14:04:18.761Z,14.75
2022-10-08T14:07:30.053Z,9.18
2022-10-08T14:10:34.665Z,30.88
2022-10-08T14:13:39.079Z,83.78
2022-10-08T14:16:44.313Z,25.58
2022-10-08T14:19:49.068Z,17.40
2022-10-08T14:22:53.655Z,16.10
2022-10-08T14:25:58.163Z,16.05
2022-10-08T14:29:02.589Z,29.35
2022-10-08T14:32:09.331Z,41.00
2022-10-08T14:35:14.610Z,32.55
2022-10-08T14:38:19.325Z,32.35
2022-10-08T14:41:23.711Z,22.63
2022-10-08T14:44:28.085Z,19.77
2022-10-08T14:47:32.390Z,13.98
2022-10-08T14:50:36.727Z,18.73
2022-10-08T14:53:41.204Z,24.45
2022-10-08T14:56:46.882Z,50.90
2022-10-08T14:59:51.264Z,22.65
2022-10-08T15:02:55.830Z,14.82
2022-10-08T15:06:01.716Z,19.75
2022-10-08T15:09:06.388Z,18.42
2022-10-08T15:12:10.680Z,16.40
2022-10-08T15:15:15.292Z,9.93
2022-10-08T15:18:19.668Z,10.00
2022-10-08T15:21:24.079Z,11.43
2022-10-08T15:24:28.818Z,9.02
2022-10-08T15:27:33.121Z,9.23
2022-10-08T15:30:37.793Z,21.15
2022-10-08T15:33:47.836Z,16.27
2022-10-08T15:36:56.706Z,13.02
2022-10-08T15:40:01.000Z,13.13
2022-10-08T15:43:06.774Z,8.45
2022-10-08T15:46:14.286Z,6.97
2022-10-08T15:49:18.689Z,15.25
2022-10-08T15:52:23.319Z,13.60
2022-10-08T15:55:27.615Z,14.15
2022-10-08T15:58:50.347Z,12.13
2022-10-08T16:01:55.094Z,7.60
2022-10-08T16:04:59.271Z,11.40
2022-10-08T16:08:03.745Z,9.25
2022-10-08T16:11:32.596Z,12.20
2022-10-08T16:14:37.022Z,9.40
2022-10-08T16:17:41.455Z,11.15
2022-10-08T16:20:47.333Z,12.70
2022-10-08T16:23:53.940Z,10.48
2022-10-08T16:26:58.488Z,10.60
2022-10-08T16:30:02.925Z,11.68
2022-10-08T16:33:07.434Z,9.52
2022-10-08T16:36:13.067Z,9.05
2022-10-08T16:39:21.426Z,3.78
2022-10-08T16:42:26.511Z,3.60
2022-10-08T16:45:30.832Z,3.50
2022-10-08T16:48:41.507Z,3.40
2022-10-08T16:51:46.570Z,3.30
2022-10-08T16:54:54.704Z,3.25
2022-10-08T16:57:59.421Z,3.10
2022-10-08T17:01:08.211Z,3.30
2022-10-08T17:04:15.052Z,3.20
2022-10-08T17:07:19.447Z,3.22
2022-10-08T17:10:24.158Z,2.80
2022-10-08T17:13:28.550Z,3.50
2022-10-08T17:16:33.128Z,3.50
2022-10-08T17:19:38.028Z,3.50
2022-10-08T17:22:42.233Z,3.17
2022-10-08T17:25:47.146Z,3.53
2022-10-08T17:28:52.884Z,3.20
2022-10-08T17:31:57.235Z,4.15
2022-10-08T17:35:01.550Z,3.67
2022-10-08T17:41:13.365Z,3.30
2022-10-08T17:44:18.123Z,3.10
2022-10-08T17:47:25.809Z,3.30
2022-10-08T17:50:37.183Z,2.95
2022-10-08T17:53:41.746Z,3.35
2022-10-08T17:56:46.649Z,3.45
2022-10-08T17:59:51.127Z,3.30
2022-10-08T18:02:55.986Z,3.20
2022-10-08T18:06:01.156Z,3.00
2022-10-08T18:09:08.651Z,3.42
2022-10-08T18:12:13.958Z,3.45
2022-10-08T18:15:18.318Z,3.35
2022-10-08T18:18:22.692Z,3.30
2022-10-08T18:21:27.141Z,3.25
2022-10-08T18:24:31.599Z,2.97
2022-10-08T18:27:35.752Z,2.95
2022-10-08T18:30:40.697Z,4.30
2022-10-08T18:33:47.109Z,3.58
2022-10-08T18:36:51.226Z,3.15
2022-10-08T18:39:55.418Z,3.75
2022-10-08T18:43:00.303Z,2.90
2022-10-08T18:46:05.388Z,3.20
2022-10-08T18:49:13.329Z,2.80
2022-10-08T18:52:21.390Z,2.97
2022-10-08T18:55:26.185Z,3.53
2022-10-08T18:58:30.863Z,3.10
2022-10-08T19:01:39.143Z,3.33
2022-10-08T19:04:43.723Z,3.33
2022-10-08T19:07:48.035Z,3.53
2022-10-08T19:10:52.539Z,3.22
2022-10-08T19:13:57.324Z,3.08
2022-10-08T19:17:02.175Z,3.80
2022-10-08T19:20:07.309Z,3.10
2022-10-08T19:23:11.575Z,2.90
2022-10-08T19:26:16.751Z,6.45
2022-10-08T19:29:23.978Z,5.82
2022-10-08T19:32:28.747Z,3.35
2022-10-08T19:35:33.089Z,3.42
2022-10-08T19:38:37.601Z,3.58
2022-10-08T19:41:43.246Z,3.30
2022-10-08T19:44:47.723Z,3.30
2022-10-08T19:47:52.233Z,3.40
2022-10-08T19:50:56.836Z,3.17
2022-10-08T19:54:02.564Z,3.17
2022-10-08T20:00:11.816Z,3.13
2022-10-08T20:03:16.398Z,3.30
2022-10-08T20:06:24.593Z,3.30
2022-10-08T20:09:31.437Z,3.33
2022-10-08T20:12:35.832Z,3.20
2022-10-08T20:15:41.040Z,2.90
2022-10-08T20:18:53.404Z,3.35
2022-10-08T20:21:57.841Z,3.20
2022-10-08T20:25:02.222Z,3.35
2022-10-08T20:28:06.895Z,7.72
2022-10-08T20:31:17.491Z,3.97
2022-10-08T20:34:33.968Z,2.78
2022-10-08T20:37:38.475Z,3.55
2022-10-08T20:40:43.383Z,4.38
2022-10-08T20:43:48.039Z,3.20
2022-10-08T20:46:53.323Z,3.38
2022-10-08T20:49:57.587Z,12.98
2022-10-08T20:53:01.981Z,4.78
2022-10-08T20:56:07.434Z,3.63
2022-10-08T20:59:17.227Z,4.20
2022-10-08T21:02:21.516Z,3.75
2022-10-08T21:05:26.632Z,3.42
2022-10-08T21:08:31.360Z,3.35
2022-10-08T21:11:36.942Z,3.08
2022-10-08T21:14:41.522Z,3.50
2022-10-08T21:17:45.789Z,3.22
2022-10-08T21:20:52.927Z,3.67
2022-10-08T21:23:58.587Z,4.05
2022-10-08T21:30:07.743Z,3.25
2022-10-08T21:33:12.250Z,3.78
2022-10-08T21:36:25.918Z,6.80
2022-10-08T21:39:30.420Z,6.32
2022-10-08T21:42:34.874Z,5.25
2022-10-08T21:45:39.304Z,5.75
2022-10-08T21:48:43.672Z,7.45
2022-10-08T21:51:48.510Z,4.93
2022-10-08T21:54:52.950Z,5.53
2022-10-08T21:57:57.184Z,4.53
2022-10-08T22:01:01.337Z,4.53
2022-10-08T22:04:12.712Z,8.75
2022-10-08T22:07:16.978Z,3.83
2022-10-08T22:10:21.442Z,4.00
2022-10-08T22:13:25.925Z,3.55
2022-10-08T22:16:30.623Z,3.50
2022-10-08T22:19:37.511Z,3.03
2022-10-08T22:22:41.983Z,3.63
2022-10-08T22:25:56.928Z,4.45
2022-10-08T22:29:01.650Z,3.75
2022-10-08T22:32:07.283Z,3.63
2022-10-08T22:35:11.688Z,3.10
2022-10-08T22:38:16.385Z,3.55
2022-10-08T22:41:26.661Z,3.30
2022-10-08T22:44:31.427Z,3.50
2022-10-08T22:47:35.732Z,3.45
2022-10-08T22:50:39.869Z,3.80
2022-10-08T22:53:44.637Z,3.47
2022-10-08T22:56:49.222Z,4.03
2022-10-08T22:59:54.123Z,3.90
2022-10-08T23:02:58.712Z,3.55
2022-10-08T23:06:11.584Z,4.50
2022-10-08T23:09:16.016Z,4.75
2022-10-08T23:12:20.615Z,4.13
2022-10-08T23:15:25.041Z,3.95
2022-10-08T23:18:30.729Z,3.50
2022-10-08T23:21:36.354Z,3.38
2022-10-08T23:24:40.954Z,3.30
2022-10-08T23:27:45.448Z,3.60
2022-10-08T23:30:49.845Z,4.00
2022-10-08T23:33:55.712Z,3.15
2022-10-08T23:40:04.565Z,3.00
2022-10-08T23:43:09.076Z,3.33
2022-10-08T23:46:15.907Z,3.92
2022-10-08T23:49:20.537Z,5.55
2022-10-08T23:52:26.150Z,5.80
2022-10-08T23:55:30.562Z,3.60
2022-10-08T23:58:35.239Z,3.40
